sensor_id;sensor_type;location;lat;lon;timestamp;P1;durP1;ratioP1;P2;durP2;ratioP2
18265;SDS011;9259;48.194;16.322;2023-08-06T00:00:14;0.22;;;0.20;;
18265;SDS011;9259;48.194;16.322;2023-08-06T00:02:42;0.25;;;0.20;;
18265;SDS011;9259;48.194;16.322;2023-08-06T00:05:10;0.15;;;0.13;;
18265;SDS011;9259;48.194;16.322;2023-08-06T00:07:39;0.38;;;0.25;;
18265;SDS011;9259;48.194;16.322;2023-08-06T00:10:07;0.20;;;0.10;;
18265;SDS011;9259;48.194;16.322;2023-08-06T00:12:36;0.47;;;0.20;;
18265;SDS011;9259;48.194;16.322;2023-08-06T00:15:04;0.32;;;0.30;;
18265;SDS011;9259;48.194;16.322;2023-08-06T00:17:33;0.70;;;0.40;;
18265;SDS011;9259;48.194;16.322;2023-08-06T00:20:01;2.00;;;0.20;;
18265;SDS011;9259;48.194;16.322;2023-08-06T00:22:30;0.45;;;0.22;;
18265;SDS011;9259;48.194;16.322;2023-08-06T00:25:00;0.40;;;0.20;;
18265;SDS011;9259;48.194;16.322;2023-08-06T00:27:28;0.25;;;0.20;;
18265;SDS011;9259;48.194;16.322;2023-08-06T00:29:56;0.50;;;0.30;;
18265;SDS011;9259;48.194;16.322;2023-08-06T00:32:24;0.10;;;0.10;;
18265;SDS011;9259;48.194;16.322;2023-08-06T00:34:52;0.30;;;0.20;;
18265;SDS011;9259;48.194;16.322;2023-08-06T00:37:20;0.30;;;0.20;;
18265;SDS011;9259;48.194;16.322;2023-08-06T00:39:48;0.40;;;0.30;;
18265;SDS011;9259;48.194;16.322;2023-08-06T00:42:17;0.40;;;0.25;;
18265;SDS011;9259;48.194;16.322;2023-08-06T00:44:47;1.38;;;0.40;;
18265;SDS011;9259;48.194;16.322;2023-08-06T00:56:17;0.70;;;0.40;;
18265;SDS011;9259;48.194;16.322;2023-08-06T00:58:47;0.40;;;0.30;;
18265;SDS011;9259;48.194;16.322;2023-08-06T01:01:15;0.40;;;0.40;;
18265;SDS011;9259;48.194;16.322;2023-08-06T01:03:46;0.60;;;0.30;;
18265;SDS011;9259;48.194;16.322;2023-08-06T01:06:14;0.55;;;0.28;;
18265;SDS011;9259;48.194;16.322;2023-08-06T01:08:47;0.20;;;0.10;;
18265;SDS011;9259;48.194;16.322;2023-08-06T01:11:21;0.32;;;0.30;;
18265;SDS011;9259;48.194;16.322;2023-08-06T01:13:57;0.50;;;0.30;;
18265;SDS011;9259;48.194;16.322;2023-08-06T01:16:27;4.68;;;0.43;;
18265;SDS011;9259;48.194;16.322;2023-08-06T01:18:56;0.50;;;0.30;;
18265;SDS011;9259;48.194;16.322;2023-08-06T01:21:27;0.77;;;0.35;;
18265;SDS011;9259;48.194;16.322;2023-08-06T01:23:55;0.30;;;0.30;;
18265;SDS011;9259;48.194;16.322;2023-08-06T01:26:24;0.43;;;0.20;;
18265;SDS011;9259;48.194;16.322;2023-08-06T01:28:59;0.22;;;0.20;;
18265;SDS011;9259;48.194;16.322;2023-08-06T01:31:33;0.95;;;0.32;;
18265;SDS011;9259;48.194;16.322;2023-08-06T01:34:05;0.15;;;0.15;;
18265;SDS011;9259;48.194;16.322;2023-08-06T01:36:35;0.20;;;0.20;;
18265;SDS011;9259;48.194;16.322;2023-08-06T01:39:04;0.25;;;0.20;;
18265;SDS011;9259;48.194;16.322;2023-08-06T01:41:32;0.40;;;0.35;;
18265;SDS011;9259;48.194;16.322;2023-08-06T01:44:00;0.30;;;0.20;;
18265;SDS011;9259;48.194;16.322;2023-08-06T01:46:28;0.20;;;0.20;;
18265;SDS011;9259;48.194;16.322;2023-08-06T01:48:56;1.15;;;0.47;;
18265;SDS011;9259;48.194;16.322;2023-08-06T01:51:24;0.45;;;0.40;;
18265;SDS011;9259;48.194;16.322;2023-08-06T01:53:54;0.50;;;0.47;;
18265;SDS011;9259;48.194;16.322;2023-08-06T01:56:22;0.70;;;0.40;;
18265;SDS011;9259;48.194;16.322;2023-08-06T01:58:50;0.30;;;0.30;;
18265;SDS011;9259;48.194;16.322;2023-08-06T02:01:18;0.68;;;0.55;;
18265;SDS011;9259;48.194;16.322;2023-08-06T02:03:46;0.32;;;0.30;;
18265;SDS011;9259;48.194;16.322;2023-08-06T02:06:14;0.40;;;0.40;;
18265;SDS011;9259;48.194;16.322;2023-08-06T02:08:42;0.88;;;0.45;;
18265;SDS011;9259;48.194;16.322;2023-08-06T02:11:13;0.90;;;0.52;;
18265;SDS011;9259;48.194;16.322;2023-08-06T02:13:41;0.50;;;0.40;;
18265;SDS011;9259;48.194;16.322;2023-08-06T02:16:09;0.80;;;0.40;;
18265;SDS011;9259;48.194;16.322;2023-08-06T02:18:37;3.15;;;0.88;;
18265;SDS011;9259;48.194;16.322;2023-08-06T02:21:05;0.73;;;0.52;;
18265;SDS011;9259;48.194;16.322;2023-08-06T02:23:33;0.65;;;0.50;;
18265;SDS011;9259;48.194;16.322;2023-08-06T02:26:02;3.60;;;0.50;;
18265;SDS011;9259;48.194;16.322;2023-08-06T02:28:32;1.02;;;0.50;;
18265;SDS011;9259;48.194;16.322;2023-08-06T02:31:00;1.30;;;0.70;;
18265;SDS011;9259;48.194;16.322;2023-08-06T02:33:28;0.80;;;0.50;;
18265;SDS011;9259;48.194;16.322;2023-08-06T02:35:59;0.90;;;0.60;;
18265;SDS011;9259;48.194;16.322;2023-08-06T02:38:29;2.30;;;1.00;;
18265;SDS011;9259;48.194;16.322;2023-08-06T02:40:57;1.25;;;0.90;;
18265;SDS011;9259;48.194;16.322;2023-08-06T02:43:25;0.75;;;0.60;;
18265;SDS011;9259;48.194;16.322;2023-08-06T02:45:57;1.13;;;0.82;;
18265;SDS011;9259;48.194;16.322;2023-08-06T02:48:25;0.80;;;0.60;;
18265;SDS011;9259;48.194;16.322;2023-08-06T02:50:56;1.30;;;0.90;;
18265;SDS011;9259;48.194;16.322;2023-08-06T02:53:25;1.08;;;0.70;;
18265;SDS011;9259;48.194;16.322;2023-08-06T02:55:53;1.15;;;0.60;;
18265;SDS011;9259;48.194;16.322;2023-08-06T02:58:21;1.10;;;0.80;;
18265;SDS011;9259;48.194;16.322;2023-08-06T03:01:00;0.60;;;0.50;;
18265;SDS011;9259;48.194;16.322;2023-08-06T03:03:29;2.75;;;0.82;;
18265;SDS011;9259;48.194;16.322;2023-08-06T03:05:57;0.90;;;0.80;;
18265;SDS011;9259;48.194;16.322;2023-08-06T03:08:25;1.63;;;1.00;;
18265;SDS011;9259;48.194;16.322;2023-08-06T03:10:53;1.98;;;0.60;;
18265;SDS011;9259;48.194;16.322;2023-08-06T03:13:21;1.25;;;0.70;;
18265;SDS011;9259;48.194;16.322;2023-08-06T03:15:52;2.65;;;1.17;;
18265;SDS011;9259;48.194;16.322;2023-08-06T03:18:22;4.65;;;2.50;;
18265;SDS011;9259;48.194;16.322;2023-08-06T03:20:51;2.15;;;1.38;;
18265;SDS011;9259;48.194;16.322;2023-08-06T03:23:19;1.60;;;1.00;;
18265;SDS011;9259;48.194;16.322;2023-08-06T03:25:47;2.05;;;1.15;;
18265;SDS011;9259;48.194;16.322;2023-08-06T03:28:15;1.60;;;1.00;;
18265;SDS011;9259;48.194;16.322;2023-08-06T03:30:44;4.65;;;2.20;;
18265;SDS011;9259;48.194;16.322;2023-08-06T03:33:12;4.25;;;1.58;;
18265;SDS011;9259;48.194;16.322;2023-08-06T03:35:41;2.92;;;1.48;;
18265;SDS011;9259;48.194;16.322;2023-08-06T03:38:09;1.80;;;1.05;;
18265;SDS011;9259;48.194;16.322;2023-08-06T03:40:37;1.15;;;0.88;;
18265;SDS011;9259;48.194;16.322;2023-08-06T03:43:05;2.42;;;1.00;;
18265;SDS011;9259;48.194;16.322;2023-08-06T03:45:33;2.33;;;1.58;;
18265;SDS011;9259;48.194;16.322;2023-08-06T03:48:01;2.35;;;1.58;;
18265;SDS011;9259;48.194;16.322;2023-08-06T03:50:30;1.88;;;1.38;;
18265;SDS011;9259;48.194;16.322;2023-08-06T03:52:59;1.40;;;1.23;;
18265;SDS011;9259;48.194;16.322;2023-08-06T03:55:27;2.38;;;1.30;;
18265;SDS011;9259;48.194;16.322;2023-08-06T03:57:55;1.50;;;1.30;;
18265;SDS011;9259;48.194;16.322;2023-08-06T04:00:23;1.80;;;1.17;;
18265;SDS011;9259;48.194;16.322;2023-08-06T04:02:51;2.70;;;1.80;;
18265;SDS011;9259;48.194;16.322;2023-08-06T04:05:19;2.15;;;1.60;;
18265;SDS011;9259;48.194;16.322;2023-08-06T04:07:47;2.38;;;1.38;;
18265;SDS011;9259;48.194;16.322;2023-08-06T04:10:17;3.05;;;1.40;;
18265;SDS011;9259;48.194;16.322;2023-08-06T04:12:45;2.55;;;1.58;;
18265;SDS011;9259;48.194;16.322;2023-08-06T04:15:13;2.70;;;1.40;;
18265;SDS011;9259;48.194;16.322;2023-08-06T04:17:41;3.22;;;1.40;;
18265;SDS011;9259;48.194;16.322;2023-08-06T04:20:09;3.92;;;1.75;;
18265;SDS011;9259;48.194;16.322;2023-08-06T04:22:38;2.53;;;1.60;;
18265;SDS011;9259;48.194;16.322;2023-08-06T04:25:06;4.53;;;1.48;;
18265;SDS011;9259;48.194;16.322;2023-08-06T04:27:36;1.98;;;1.33;;
18265;SDS011;9259;48.194;16.322;2023-08-06T04:30:07;2.15;;;1.30;;
18265;SDS011;9259;48.194;16.322;2023-08-06T04:32:37;2.28;;;1.40;;
18265;SDS011;9259;48.194;16.322;2023-08-06T04:35:06;2.05;;;1.42;;
18265;SDS011;9259;48.194;16.322;2023-08-06T04:37:34;2.20;;;1.42;;
18265;SDS011;9259;48.194;16.322;2023-08-06T04:40:02;2.97;;;1.60;;
18265;SDS011;9259;48.194;16.322;2023-08-06T04:42:31;1.55;;;1.23;;
18265;SDS011;9259;48.194;16.322;2023-08-06T04:45:01;2.28;;;1.35;;
18265;SDS011;9259;48.194;16.322;2023-08-06T04:47:29;1.67;;;1.30;;
18265;SDS011;9259;48.194;16.322;2023-08-06T04:49:57;4.97;;;1.35;;
18265;SDS011;9259;48.194;16.322;2023-08-06T04:52:25;1.83;;;1.40;;
18265;SDS011;9259;48.194;16.322;2023-08-06T04:54:54;1.83;;;1.42;;
18265;SDS011;9259;48.194;16.322;2023-08-06T04:57:22;1.98;;;1.60;;
18265;SDS011;9259;48.194;16.322;2023-08-06T04:59:50;2.42;;;1.48;;
18265;SDS011;9259;48.194;16.322;2023-08-06T05:02:19;2.65;;;1.63;;
18265;SDS011;9259;48.194;16.322;2023-08-06T05:04:48;2.28;;;1.50;;
18265;SDS011;9259;48.194;16.322;2023-08-06T05:07:16;2.25;;;1.40;;
18265;SDS011;9259;48.194;16.322;2023-08-06T05:09:44;2.13;;;1.35;;
18265;SDS011;9259;48.194;16.322;2023-08-06T05:12:12;2.03;;;1.40;;
18265;SDS011;9259;48.194;16.322;2023-08-06T05:14:40;2.58;;;1.52;;
18265;SDS011;9259;48.194;16.322;2023-08-06T05:17:08;1.85;;;1.42;;
18265;SDS011;9259;48.194;16.322;2023-08-06T05:19:37;2.58;;;1.80;;
18265;SDS011;9259;48.194;16.322;2023-08-06T05:22:05;2.25;;;1.40;;
18265;SDS011;9259;48.194;16.322;2023-08-06T05:24:33;3.90;;;1.60;;
18265;SDS011;9259;48.194;16.322;2023-08-06T05:27:01;2.20;;;1.40;;
18265;SDS011;9259;48.194;16.322;2023-08-06T05:29:30;2.28;;;1.40;;
18265;SDS011;9259;48.194;16.322;2023-08-06T05:31:58;4.47;;;1.50;;
18265;SDS011;9259;48.194;16.322;2023-08-06T05:34:26;2.25;;;1.52;;
18265;SDS011;9259;48.194;16.322;2023-08-06T05:36:55;1.75;;;1.30;;
18265;SDS011;9259;48.194;16.322;2023-08-06T05:39:23;2.67;;;1.40;;
18265;SDS011;9259;48.194;16.322;2023-08-06T05:41:51;1.77;;;1.38;;
18265;SDS011;9259;48.194;16.322;2023-08-06T05:44:20;1.42;;;1.00;;
18265;SDS011;9259;48.194;16.322;2023-08-06T05:46:49;1.55;;;1.20;;
18265;SDS011;9259;48.194;16.322;2023-08-06T05:49:19;1.70;;;1.05;;
18265;SDS011;9259;48.194;16.322;2023-08-06T05:51:47;2.25;;;1.10;;
18265;SDS011;9259;48.194;16.322;2023-08-06T05:54:16;1.02;;;0.90;;
18265;SDS011;9259;48.194;16.322;2023-08-06T05:56:44;2.83;;;1.25;;
18265;SDS011;9259;48.194;16.322;2023-08-06T05:59:12;2.60;;;1.27;;
18265;SDS011;9259;48.194;16.322;2023-08-06T06:01:40;3.03;;;1.20;;
18265;SDS011;9259;48.194;16.322;2023-08-06T06:04:08;2.38;;;1.33;;
18265;SDS011;9259;48.194;16.322;2023-08-06T06:06:36;2.58;;;1.05;;
18265;SDS011;9259;48.194;16.322;2023-08-06T06:09:05;2.25;;;1.23;;
18265;SDS011;9259;48.194;16.322;2023-08-06T06:11:34;1.75;;;1.08;;
18265;SDS011;9259;48.194;16.322;2023-08-06T06:14:02;3.47;;;1.38;;
18265;SDS011;9259;48.194;16.322;2023-08-06T06:16:30;1.40;;;1.05;;
18265;SDS011;9259;48.194;16.322;2023-08-06T06:18:58;1.55;;;1.20;;
18265;SDS011;9259;48.194;16.322;2023-08-06T06:21:26;1.25;;;0.90;;
18265;SDS011;9259;48.194;16.322;2023-08-06T06:23:54;1.27;;;1.00;;
18265;SDS011;9259;48.194;16.322;2023-08-06T06:26:22;1.77;;;1.33;;
18265;SDS011;9259;48.194;16.322;2023-08-06T06:28:52;2.53;;;1.35;;
18265;SDS011;9259;48.194;16.322;2023-08-06T06:31:20;1.70;;;1.10;;
18265;SDS011;9259;48.194;16.322;2023-08-06T06:33:48;3.28;;;1.10;;
18265;SDS011;9259;48.194;16.322;2023-08-06T06:36:16;1.25;;;1.13;;
18265;SDS011;9259;48.194;16.322;2023-08-06T06:38:44;1.40;;;1.10;;
18265;SDS011;9259;48.194;16.322;2023-08-06T06:41:12;1.65;;;1.20;;
18265;SDS011;9259;48.194;16.322;2023-08-06T06:43:40;1.35;;;1.10;;
18265;SDS011;9259;48.194;16.322;2023-08-06T06:46:09;1.70;;;1.20;;
18265;SDS011;9259;48.194;16.322;2023-08-06T06:48:42;1.77;;;1.10;;
18265;SDS011;9259;48.194;16.322;2023-08-06T06:58:19;1.92;;;1.48;;
18265;SDS011;9259;48.194;16.322;2023-08-06T07:00:47;2.33;;;1.27;;
18265;SDS011;9259;48.194;16.322;2023-08-06T07:03:17;1.95;;;1.23;;
18265;SDS011;9259;48.194;16.322;2023-08-06T07:05:46;1.65;;;1.33;;
18265;SDS011;9259;48.194;16.322;2023-08-06T07:08:14;1.27;;;1.10;;
18265;SDS011;9259;48.194;16.322;2023-08-06T07:10:43;1.60;;;1.30;;
18265;SDS011;9259;48.194;16.322;2023-08-06T07:13:11;1.55;;;1.25;;
18265;SDS011;9259;48.194;16.322;2023-08-06T07:15:39;1.20;;;1.08;;
18265;SDS011;9259;48.194;16.322;2023-08-06T07:18:07;1.90;;;1.50;;
18265;SDS011;9259;48.194;16.322;2023-08-06T07:20:36;2.67;;;1.38;;
18265;SDS011;9259;48.194;16.322;2023-08-06T07:23:04;1.83;;;1.20;;
18265;SDS011;9259;48.194;16.322;2023-08-06T07:25:32;2.30;;;1.27;;
18265;SDS011;9259;48.194;16.322;2023-08-06T07:28:00;1.33;;;1.10;;
18265;SDS011;9259;48.194;16.322;2023-08-06T07:30:28;1.58;;;1.05;;
18265;SDS011;9259;48.194;16.322;2023-08-06T07:32:56;2.58;;;1.08;;
18265;SDS011;9259;48.194;16.322;2023-08-06T07:35:24;1.70;;;1.13;;
18265;SDS011;9259;48.194;16.322;2023-08-06T07:37:56;2.75;;;1.42;;
18265;SDS011;9259;48.194;16.322;2023-08-06T07:40:24;2.42;;;1.30;;
18265;SDS011;9259;48.194;16.322;2023-08-06T07:42:52;2.88;;;1.23;;
18265;SDS011;9259;48.194;16.322;2023-08-06T07:45:20;1.40;;;1.00;;
18265;SDS011;9259;48.194;16.322;2023-08-06T07:47:48;1.90;;;1.20;;
18265;SDS011;9259;48.194;16.322;2023-08-06T07:50:17;1.95;;;1.40;;
18265;SDS011;9259;48.194;16.322;2023-08-06T07:52:45;1.13;;;1.00;;
18265;SDS011;9259;48.194;16.322;2023-08-06T07:55:14;1.50;;;1.30;;
18265;SDS011;9259;48.194;16.322;2023-08-06T07:57:42;4.78;;;1.38;;
18265;SDS011;9259;48.194;16.322;2023-08-06T08:00:10;3.50;;;1.10;;
18265;SDS011;9259;48.194;16.322;2023-08-06T08:02:39;2.13;;;1.15;;
18265;SDS011;9259;48.194;16.322;2023-08-06T08:05:07;1.35;;;1.20;;
18265;SDS011;9259;48.194;16.322;2023-08-06T08:07:35;2.22;;;1.30;;
18265;SDS011;9259;48.194;16.322;2023-08-06T08:10:03;1.50;;;1.20;;
18265;SDS011;9259;48.194;16.322;2023-08-06T08:12:33;2.15;;;1.30;;
18265;SDS011;9259;48.194;16.322;2023-08-06T08:15:02;1.42;;;1.08;;
18265;SDS011;9259;48.194;16.322;2023-08-06T08:17:30;1.98;;;1.23;;
18265;SDS011;9259;48.194;16.322;2023-08-06T08:20:00;1.67;;;1.23;;
18265;SDS011;9259;48.194;16.322;2023-08-06T08:22:28;1.63;;;1.15;;
18265;SDS011;9259;48.194;16.322;2023-08-06T08:24:56;2.08;;;1.50;;
18265;SDS011;9259;48.194;16.322;2023-08-06T08:27:24;1.38;;;1.15;;
18265;SDS011;9259;48.194;16.322;2023-08-06T08:29:54;2.90;;;1.50;;
18265;SDS011;9259;48.194;16.322;2023-08-06T08:32:22;2.38;;;1.23;;
18265;SDS011;9259;48.194;16.322;2023-08-06T08:34:51;2.50;;;1.45;;
18265;SDS011;9259;48.194;16.322;2023-08-06T08:37:19;2.25;;;1.17;;
18265;SDS011;9259;48.194;16.322;2023-08-06T08:39:48;2.15;;;1.48;;
18265;SDS011;9259;48.194;16.322;2023-08-06T08:42:16;1.88;;;1.30;;
18265;SDS011;9259;48.194;16.322;2023-08-06T08:44:44;2.55;;;1.40;;
18265;SDS011;9259;48.194;16.322;2023-08-06T08:47:14;3.13;;;1.30;;
18265;SDS011;9259;48.194;16.322;2023-08-06T08:49:42;2.80;;;1.50;;
18265;SDS011;9259;48.194;16.322;2023-08-06T08:52:11;2.25;;;1.52;;
18265;SDS011;9259;48.194;16.322;2023-08-06T08:54:39;1.80;;;1.40;;
18265;SDS011;9259;48.194;16.322;2023-08-06T08:57:08;1.85;;;1.23;;
18265;SDS011;9259;48.194;16.322;2023-08-06T08:59:36;2.03;;;1.40;;
18265;SDS011;9259;48.194;16.322;2023-08-06T09:02:04;2.08;;;1.48;;
18265;SDS011;9259;48.194;16.322;2023-08-06T09:04:36;1.77;;;1.48;;
18265;SDS011;9259;48.194;16.322;2023-08-06T09:07:05;2.83;;;1.60;;
18265;SDS011;9259;48.194;16.322;2023-08-06T09:09:35;3.05;;;1.80;;
18265;SDS011;9259;48.194;16.322;2023-08-06T09:12:05;2.53;;;1.60;;
18265;SDS011;9259;48.194;16.322;2023-08-06T09:14:37;4.78;;;1.98;;
18265;SDS011;9259;48.194;16.322;2023-08-06T09:17:05;2.40;;;1.70;;
18265;SDS011;9259;48.194;16.322;2023-08-06T09:19:34;2.20;;;1.60;;
18265;SDS011;9259;48.194;16.322;2023-08-06T09:22:02;3.22;;;2.17;;
18265;SDS011;9259;48.194;16.322;2023-08-06T09:24:38;2.95;;;1.90;;
18265;SDS011;9259;48.194;16.322;2023-08-06T09:27:10;2.67;;;2.10;;
18265;SDS011;9259;48.194;16.322;2023-08-06T09:29:40;3.35;;;2.20;;
18265;SDS011;9259;48.194;16.322;2023-08-06T09:32:09;3.00;;;1.77;;
18265;SDS011;9259;48.194;16.322;2023-08-06T09:34:41;2.80;;;1.90;;
18265;SDS011;9259;48.194;16.322;2023-08-06T09:37:09;3.97;;;1.90;;
18265;SDS011;9259;48.194;16.322;2023-08-06T09:39:38;2.40;;;1.80;;
18265;SDS011;9259;48.194;16.322;2023-08-06T09:42:07;3.55;;;2.25;;
18265;SDS011;9259;48.194;16.322;2023-08-06T09:44:35;2.40;;;2.00;;
18265;SDS011;9259;48.194;16.322;2023-08-06T09:47:04;4.78;;;2.30;;
18265;SDS011;9259;48.194;16.322;2023-08-06T09:49:43;3.03;;;2.20;;
18265;SDS011;9259;48.194;16.322;2023-08-06T09:52:12;2.67;;;1.75;;
18265;SDS011;9259;48.194;16.322;2023-08-06T09:54:41;2.80;;;1.77;;
18265;SDS011;9259;48.194;16.322;2023-08-06T09:57:11;3.10;;;2.22;;
18265;SDS011;9259;48.194;16.322;2023-08-06T09:59:39;2.47;;;1.90;;
18265;SDS011;9259;48.194;16.322;2023-08-06T10:02:12;2.35;;;1.73;;
18265;SDS011;9259;48.194;16.322;2023-08-06T10:04:40;2.67;;;1.70;;
18265;SDS011;9259;48.194;16.322;2023-08-06T10:07:13;2.42;;;1.63;;
18265;SDS011;9259;48.194;16.322;2023-08-06T10:09:43;2.28;;;1.77;;
18265;SDS011;9259;48.194;16.322;2023-08-06T10:12:11;2.72;;;1.90;;
18265;SDS011;9259;48.194;16.322;2023-08-06T10:14:39;3.25;;;2.00;;
18265;SDS011;9259;48.194;16.322;2023-08-06T10:17:10;3.33;;;2.30;;
18265;SDS011;9259;48.194;16.322;2023-08-06T10:19:38;3.15;;;2.03;;
18265;SDS011;9259;48.194;16.322;2023-08-06T10:22:11;3.45;;;2.05;;
18265;SDS011;9259;48.194;16.322;2023-08-06T10:24:46;4.40;;;1.65;;
18265;SDS011;9259;48.194;16.322;2023-08-06T10:27:19;3.95;;;2.25;;
18265;SDS011;9259;48.194;16.322;2023-08-06T10:29:48;3.30;;;2.00;;
18265;SDS011;9259;48.194;16.322;2023-08-06T10:32:16;1.98;;;1.75;;
18265;SDS011;9259;48.194;16.322;2023-08-06T10:34:54;2.75;;;1.70;;
18265;SDS011;9259;48.194;16.322;2023-08-06T10:37:25;2.53;;;2.10;;
18265;SDS011;9259;48.194;16.322;2023-08-06T10:40:02;3.60;;;2.08;;
18265;SDS011;9259;48.194;16.322;2023-08-06T10:42:33;4.38;;;2.10;;
18265;SDS011;9259;48.194;16.322;2023-08-06T10:45:16;4.82;;;2.05;;
18265;SDS011;9259;48.194;16.322;2023-08-06T10:47:46;3.95;;;2.20;;
18265;SDS011;9259;48.194;16.322;2023-08-06T10:50:15;3.13;;;2.13;;
18265;SDS011;9259;48.194;16.322;2023-08-06T10:52:45;3.80;;;2.17;;
18265;SDS011;9259;48.194;16.322;2023-08-06T10:55:13;2.65;;;2.10;;
18265;SDS011;9259;48.194;16.322;2023-08-06T10:57:48;3.15;;;1.80;;
18265;SDS011;9259;48.194;16.322;2023-08-06T11:00:16;4.00;;;1.80;;
18265;SDS011;9259;48.194;16.322;2023-08-06T11:02:46;2.33;;;1.73;;
18265;SDS011;9259;48.194;16.322;2023-08-06T11:05:15;3.17;;;1.67;;
18265;SDS011;9259;48.194;16.322;2023-08-06T11:07:44;1.92;;;1.60;;
18265;SDS011;9259;48.194;16.322;2023-08-06T11:10:14;2.88;;;1.90;;
18265;SDS011;9259;48.194;16.322;2023-08-06T11:12:42;2.30;;;1.73;;
18265;SDS011;9259;48.194;16.322;2023-08-06T11:15:10;1.85;;;1.20;;
18265;SDS011;9259;48.194;16.322;2023-08-06T11:17:39;3.72;;;1.75;;
18265;SDS011;9259;48.194;16.322;2023-08-06T11:20:08;4.85;;;2.05;;
18265;SDS011;9259;48.194;16.322;2023-08-06T11:22:37;3.00;;;1.67;;
18265;SDS011;9259;48.194;16.322;2023-08-06T11:25:07;4.03;;;1.65;;
18265;SDS011;9259;48.194;16.322;2023-08-06T11:27:35;2.50;;;1.63;;
18265;SDS011;9259;48.194;16.322;2023-08-06T11:30:03;4.88;;;1.60;;
18265;SDS011;9259;48.194;16.322;2023-08-06T11:32:32;2.40;;;1.80;;
18265;SDS011;9259;48.194;16.322;2023-08-06T11:35:09;2.50;;;1.85;;
18265;SDS011;9259;48.194;16.322;2023-08-06T11:37:39;3.03;;;2.10;;
18265;SDS011;9259;48.194;16.322;2023-08-06T11:40:13;2.72;;;1.55;;
18265;SDS011;9259;48.194;16.322;2023-08-06T11:42:42;2.25;;;1.60;;
18265;SDS011;9259;48.194;16.322;2023-08-06T11:45:10;2.20;;;1.48;;
18265;SDS011;9259;48.194;16.322;2023-08-06T11:47:39;2.88;;;1.73;;
18265;SDS011;9259;48.194;16.322;2023-08-06T11:50:07;2.28;;;1.50;;
18265;SDS011;9259;48.194;16.322;2023-08-06T11:52:38;2.95;;;1.85;;
18265;SDS011;9259;48.194;16.322;2023-08-06T11:55:08;4.30;;;2.10;;
18265;SDS011;9259;48.194;16.322;2023-08-06T11:57:38;3.28;;;2.13;;
18265;SDS011;9259;48.194;16.322;2023-08-06T12:00:07;2.78;;;1.65;;
18265;SDS011;9259;48.194;16.322;2023-08-06T12:02:38;4.15;;;2.30;;
18265;SDS011;9259;48.194;16.322;2023-08-06T12:05:09;5.78;;;2.65;;
18265;SDS011;9259;48.194;16.322;2023-08-06T12:07:38;2.97;;;1.73;;
18265;SDS011;9259;48.194;16.322;2023-08-06T12:10:11;4.20;;;2.35;;
18265;SDS011;9259;48.194;16.322;2023-08-06T12:12:42;3.65;;;2.03;;
18265;SDS011;9259;48.194;16.322;2023-08-06T12:15:10;3.85;;;2.20;;
18265;SDS011;9259;48.194;16.322;2023-08-06T12:17:39;3.33;;;2.28;;
18265;SDS011;9259;48.194;16.322;2023-08-06T12:20:07;6.75;;;2.25;;
18265;SDS011;9259;48.194;16.322;2023-08-06T12:22:36;3.28;;;1.95;;
18265;SDS011;9259;48.194;16.322;2023-08-06T12:25:06;3.40;;;1.98;;
18265;SDS011;9259;48.194;16.322;2023-08-06T12:27:36;4.40;;;2.30;;
18265;SDS011;9259;48.194;16.322;2023-08-06T12:30:07;5.57;;;2.25;;
18265;SDS011;9259;48.194;16.322;2023-08-06T12:32:36;2.67;;;1.65;;
18265;SDS011;9259;48.194;16.322;2023-08-06T12:35:04;4.15;;;2.17;;
18265;SDS011;9259;48.194;16.322;2023-08-06T12:37:34;4.25;;;2.25;;
18265;SDS011;9259;48.194;16.322;2023-08-06T12:40:04;3.78;;;2.15;;
18265;SDS011;9259;48.194;16.322;2023-08-06T12:42:33;3.17;;;1.95;;
18265;SDS011;9259;48.194;16.322;2023-08-06T12:45:01;3.50;;;2.17;;
18265;SDS011;9259;48.194;16.322;2023-08-06T12:47:31;4.68;;;2.13;;
18265;SDS011;9259;48.194;16.322;2023-08-06T12:49:59;5.70;;;2.38;;
18265;SDS011;9259;48.194;16.322;2023-08-06T12:52:27;3.80;;;2.15;;
18265;SDS011;9259;48.194;16.322;2023-08-06T12:54:55;4.10;;;2.10;;
18265;SDS011;9259;48.194;16.322;2023-08-06T12:57:23;3.40;;;2.00;;
18265;SDS011;9259;48.194;16.322;2023-08-06T12:59:52;3.60;;;2.10;;
18265;SDS011;9259;48.194;16.322;2023-08-06T13:02:20;3.60;;;2.25;;
18265;SDS011;9259;48.194;16.322;2023-08-06T13:04:53;4.15;;;2.00;;
18265;SDS011;9259;48.194;16.322;2023-08-06T13:07:23;2.88;;;2.00;;
18265;SDS011;9259;48.194;16.322;2023-08-06T13:09:53;4.35;;;2.15;;
18265;SDS011;9259;48.194;16.322;2023-08-06T13:12:23;3.33;;;1.90;;
18265;SDS011;9259;48.194;16.322;2023-08-06T13:14:53;5.55;;;2.40;;
18265;SDS011;9259;48.194;16.322;2023-08-06T13:17:25;3.30;;;1.92;;
18265;SDS011;9259;48.194;16.322;2023-08-06T13:19:56;3.60;;;2.20;;
18265;SDS011;9259;48.194;16.322;2023-08-06T13:22:26;2.58;;;2.00;;
18265;SDS011;9259;48.194;16.322;2023-08-06T13:24:56;5.00;;;2.50;;
18265;SDS011;9259;48.194;16.322;2023-08-06T13:27:25;3.80;;;1.92;;
18265;SDS011;9259;48.194;16.322;2023-08-06T13:29:55;4.57;;;2.20;;
18265;SDS011;9259;48.194;16.322;2023-08-06T13:32:25;3.20;;;1.90;;
18265;SDS011;9259;48.194;16.322;2023-08-06T13:34:56;3.90;;;1.75;;
18265;SDS011;9259;48.194;16.322;2023-08-06T13:37:25;3.45;;;1.63;;
18265;SDS011;9259;48.194;16.322;2023-08-06T13:39:55;4.15;;;1.67;;
18265;SDS011;9259;48.194;16.322;2023-08-06T13:42:25;3.60;;;1.77;;
18265;SDS011;9259;48.194;16.322;2023-08-06T13:44:54;3.63;;;1.60;;
18265;SDS011;9259;48.194;16.322;2023-08-06T13:47:29;4.10;;;1.65;;
18265;SDS011;9259;48.194;16.322;2023-08-06T13:50:00;4.03;;;1.60;;
18265;SDS011;9259;48.194;16.322;2023-08-06T13:52:30;2.60;;;1.55;;
18265;SDS011;9259;48.194;16.322;2023-08-06T13:54:59;1.80;;;1.23;;
18265;SDS011;9259;48.194;16.322;2023-08-06T13:57:30;2.10;;;1.50;;
18265;SDS011;9259;48.194;16.322;2023-08-06T14:00:01;4.15;;;1.85;;
18265;SDS011;9259;48.194;16.322;2023-08-06T14:02:31;1.85;;;1.10;;
18265;SDS011;9259;48.194;16.322;2023-08-06T14:05:03;2.70;;;1.23;;
18265;SDS011;9259;48.194;16.322;2023-08-06T14:07:33;1.70;;;1.10;;
18265;SDS011;9259;48.194;16.322;2023-08-06T14:10:03;2.17;;;0.85;;
18265;SDS011;9259;48.194;16.322;2023-08-06T14:12:35;3.45;;;0.90;;
18265;SDS011;9259;48.194;16.322;2023-08-06T14:15:06;1.70;;;0.88;;
18265;SDS011;9259;48.194;16.322;2023-08-06T14:17:36;1.90;;;0.85;;
18265;SDS011;9259;48.194;16.322;2023-08-06T14:20:08;1.15;;;0.80;;
18265;SDS011;9259;48.194;16.322;2023-08-06T14:22:38;2.83;;;0.68;;
18265;SDS011;9259;48.194;16.322;2023-08-06T14:25:09;1.90;;;0.70;;
18265;SDS011;9259;48.194;16.322;2023-08-06T14:27:42;1.00;;;0.60;;
18265;SDS011;9259;48.194;16.322;2023-08-06T14:30:13;1.75;;;0.65;;
18265;SDS011;9259;48.194;16.322;2023-08-06T14:32:43;0.80;;;0.55;;
18265;SDS011;9259;48.194;16.322;2023-08-06T14:35:14;1.35;;;0.55;;
18265;SDS011;9259;48.194;16.322;2023-08-06T14:37:44;0.75;;;0.45;;
18265;SDS011;9259;48.194;16.322;2023-08-06T14:40:14;0.65;;;0.32;;
18265;SDS011;9259;48.194;16.322;2023-08-06T14:42:44;0.45;;;0.38;;
18265;SDS011;9259;48.194;16.322;2023-08-06T14:45:15;1.42;;;0.60;;
18265;SDS011;9259;48.194;16.322;2023-08-06T14:47:47;1.95;;;0.47;;
18265;SDS011;9259;48.194;16.322;2023-08-06T14:50:18;3.15;;;0.57;;
18265;SDS011;9259;48.194;16.322;2023-08-06T14:52:48;1.42;;;0.50;;
18265;SDS011;9259;48.194;16.322;2023-08-06T14:55:22;1.45;;;0.40;;
18265;SDS011;9259;48.194;16.322;2023-08-06T14:57:52;0.45;;;0.30;;
18265;SDS011;9259;48.194;16.322;2023-08-06T15:00:22;0.52;;;0.35;;
18265;SDS011;9259;48.194;16.322;2023-08-06T15:02:53;0.80;;;0.40;;
18265;SDS011;9259;48.194;16.322;2023-08-06T15:05:33;0.68;;;0.40;;
18265;SDS011;9259;48.194;16.322;2023-08-06T15:08:07;0.95;;;0.30;;
18265;SDS011;9259;48.194;16.322;2023-08-06T15:10:38;1.13;;;0.50;;
18265;SDS011;9259;48.194;16.322;2023-08-06T15:13:08;1.38;;;0.40;;
18265;SDS011;9259;48.194;16.322;2023-08-06T15:15:38;0.20;;;0.20;;